PWSweather.com
Personal Weather Stations
Station Observations
SHAHALMS1
Eftra, Falkenberg, HA

EftraFalkenberg, HA

Lat: 56.85, Lon: 12.65

Elevation: 140

Station Type:

http://hem.passagen.se/risarp101

High Low Average
Temperature 25.2°F-3.8°C 12.6°F-10.8°C 19.3°F-7.1°C
Dew Point 12.3°F-10.9°C 0.9°F-17.3°C 6.6°F-14.1°C
Winds 15.4 mph 24.8 kmh Calm Calm 6.0 mph NNE9.7 kmh NNE
Wind Gusts 19.0 mph30.6 kmh -- 7.0 mph11.3 kmh
Humidity 66% 51% 57%
Pressure 30.48 in1032.2 mb 30.07 in1018.3 mb -
Precipitation 0.00 in0.0 mm - -
Hour Temp Dew Point Humidity Winds Wind Gusts Pressure Precip Precip Rate Daily Precip Total
12:00 AM 16.0°F-8.9°C 4.5°F-15.3°C 60% 7.3 mph NE11.7 kmh NE 8.9 mph14.3 kmh 30.48 in1032.2 mb 0.00 in0.0 mm 0.00 in0.0 mm 0.00 in0.0 mm
12:15 AM 15.8°F-9.0°C 4.0°F-15.6°C 59% 7.3 mph NE11.7 kmh NE 8.9 mph14.3 kmh 30.48 in1032.2 mb 0.00 in0.0 mm 0.00 in0.0 mm 0.00 in0.0 mm
12:30 AM 15.8°F-9.0°C 4.0°F-15.6°C 59% 7.3 mph NE11.7 kmh NE 8.9 mph14.3 kmh 30.45 in1031.2 mb 0.00 in0.0 mm 0.00 in0.0 mm 0.00 in0.0 mm
12:45 AM 15.4°F-9.2°C 3.6°F-15.8°C 59% 7.3 mph NE11.7 kmh NE 8.9 mph14.3 kmh 30.48 in1032.2 mb 0.00 in0.0 mm 0.00 in0.0 mm 0.00 in0.0 mm
01:00 AM 15.3°F-9.3°C 3.5°F-15.8°C 59% 7.3 mph NE11.7 kmh NE 8.9 mph14.3 kmh 30.45 in1031.2 mb 0.00 in0.0 mm 0.00 in0.0 mm 0.00 in0.0 mm
01:15 AM 15.3°F-9.3°C 3.1°F-16.1°C 58% 7.3 mph NE11.7 kmh NE 8.9 mph14.3 kmh 30.45 in1031.2 mb 0.00 in0.0 mm 0.00 in0.0 mm 0.00 in0.0 mm
01:30 AM 14.9°F-9.5°C 2.8°F-16.2°C 58% 7.3 mph NE11.7 kmh NE 8.9 mph14.3 kmh 30.45 in1031.2 mb 0.00 in0.0 mm 0.00 in0.0 mm 0.00 in0.0 mm
01:45 AM 14.7°F-9.6°C 2.6°F-16.3°C 58% 7.3 mph NE11.7 kmh NE 8.9 mph14.3 kmh 30.45 in1031.2 mb 0.00 in0.0 mm 0.00 in0.0 mm 0.00 in0.0 mm
02:00 AM 14.7°F-9.6°C 2.6°F-16.3°C 58% 7.3 mph NE11.7 kmh NE 8.9 mph14.3 kmh 30.45 in1031.2 mb 0.00 in0.0 mm 0.00 in0.0 mm 0.00 in0.0 mm
02:15 AM 14.9°F-9.5°C 2.8°F-16.2°C 58% 7.3 mph NE11.7 kmh NE 8.9 mph14.3 kmh 30.42 in1030.1 mb 0.00 in0.0 mm 0.00 in0.0 mm 0.00 in0.0 mm
02:30 AM 14.9°F-9.5°C 2.8°F-16.2°C 58% 7.3 mph NE11.7 kmh NE 8.9 mph14.3 kmh 30.42 in1030.1 mb 0.00 in0.0 mm 0.00 in0.0 mm 0.00 in0.0 mm
02:45 AM 14.9°F-9.5°C 2.8°F-16.2°C 58% 7.3 mph NE11.7 kmh NE 8.9 mph14.3 kmh 30.48 in1032.2 mb 0.00 in0.0 mm 0.00 in0.0 mm 0.00 in0.0 mm
03:00 AM 14.9°F-9.5°C 2.8°F-16.2°C 58% 7.3 mph NE11.7 kmh NE 8.9 mph14.3 kmh 30.45 in1031.2 mb 0.00 in0.0 mm 0.00 in0.0 mm 0.00 in0.0 mm
03:15 AM 14.7°F-9.6°C 2.6°F-16.3°C 58% 7.3 mph NE11.7 kmh NE 8.9 mph14.3 kmh 30.42 in1030.1 mb 0.00 in0.0 mm 0.00 in0.0 mm 0.00 in0.0 mm
03:30 AM 14.5°F-9.7°C 2.4°F-16.4°C 58% 7.3 mph NE11.7 kmh NE 8.9 mph14.3 kmh 30.42 in1030.1 mb 0.00 in0.0 mm 0.00 in0.0 mm 0.00 in0.0 mm
03:45 AM 14.4°F-9.8°C 2.3°F-16.5°C 58% 7.3 mph NE11.7 kmh NE 8.9 mph14.3 kmh 30.42 in1030.1 mb 0.00 in0.0 mm 0.00 in0.0 mm 0.00 in0.0 mm
04:00 AM 14.4°F-9.8°C 2.6°F-16.3°C 59% 7.3 mph NE11.7 kmh NE 8.9 mph14.3 kmh 30.42 in1030.1 mb 0.00 in0.0 mm 0.00 in0.0 mm 0.00 in0.0 mm
04:15 AM 14.4°F-9.8°C 2.6°F-16.3°C 59% 7.3 mph NE11.7 kmh NE 8.9 mph14.3 kmh 30.39 in1029.1 mb 0.00 in0.0 mm 0.00 in0.0 mm 0.00 in0.0 mm
04:30 AM 14.4°F-9.8°C 2.6°F-16.3°C 59% 7.3 mph NE11.7 kmh NE 8.9 mph14.3 kmh 30.39 in1029.1 mb 0.00 in0.0 mm 0.00 in0.0 mm 0.00 in0.0 mm
04:45 AM 14.4°F-9.8°C 2.6°F-16.3°C 59% 7.3 mph NE11.7 kmh NE 8.9 mph14.3 kmh 30.39 in1029.1 mb 0.00 in0.0 mm 0.00 in0.0 mm 0.00 in0.0 mm
05:00 AM 14.2°F-9.9°C 2.5°F-16.4°C 59% 7.3 mph NE11.7 kmh NE 8.9 mph14.3 kmh 30.36 in1028.1 mb 0.00 in0.0 mm 0.00 in0.0 mm 0.00 in0.0 mm
05:15 AM 14.0°F-10.0°C 2.3°F-16.5°C 59% 7.3 mph NE11.7 kmh NE 8.9 mph14.3 kmh 30.39 in1029.1 mb 0.00 in0.0 mm 0.00 in0.0 mm 0.00 in0.0 mm
05:31 AM 13.8°F-10.1°C 2.1°F-16.6°C 59% 7.3 mph NE11.7 kmh NE 8.9 mph14.3 kmh 30.39 in1029.1 mb 0.00 in0.0 mm 0.00 in0.0 mm 0.00 in0.0 mm
05:45 AM 13.6°F-10.2°C 1.9°F-16.7°C 59% 7.3 mph NE11.7 kmh NE 8.9 mph14.3 kmh 30.36 in1028.1 mb 0.00 in0.0 mm 0.00 in0.0 mm 0.00 in0.0 mm
06:00 AM 13.3°F-10.4°C 1.6°F-16.9°C 59% 7.3 mph NE11.7 kmh NE 8.9 mph14.3 kmh 30.36 in1028.1 mb 0.00 in0.0 mm 0.00 in0.0 mm 0.00 in0.0 mm
06:15 AM 12.7°F-10.7°C 1.1°F-17.2°C 59% 7.3 mph NE11.7 kmh NE 8.9 mph14.3 kmh 30.36 in1028.1 mb 0.00 in0.0 mm 0.00 in0.0 mm 0.00 in0.0 mm
06:30 AM 12.7°F-10.7°C 1.1°F-17.2°C 59% 7.3 mph NE11.7 kmh NE 8.9 mph14.3 kmh 30.36 in1028.1 mb 0.00 in0.0 mm 0.00 in0.0 mm 0.00 in0.0 mm
06:45 AM 12.7°F-10.7°C 1.1°F-17.2°C 59% 7.3 mph NE11.7 kmh NE 8.9 mph14.3 kmh 30.33 in1027.1 mb 0.00 in0.0 mm 0.00 in0.0 mm 0.00 in0.0 mm
07:00 AM 12.6°F-10.8°C 0.9°F-17.3°C 59% 7.3 mph NE11.7 kmh NE 8.9 mph14.3 kmh 30.33 in1027.1 mb 0.00 in0.0 mm 0.00 in0.0 mm 0.00 in0.0 mm
07:15 AM 12.6°F-10.8°C 0.9°F-17.3°C 59% 7.3 mph NE11.7 kmh NE 8.9 mph14.3 kmh 30.33 in1027.1 mb 0.00 in0.0 mm 0.00 in0.0 mm 0.00 in0.0 mm
07:30 AM 12.6°F-10.8°C 0.9°F-17.3°C 59% 7.3 mph NE11.7 kmh NE 8.9 mph14.3 kmh 30.33 in1027.1 mb 0.00 in0.0 mm 0.00 in0.0 mm 0.00 in0.0 mm
07:45 AM 13.3°F-10.4°C 1.6°F-16.9°C 59% 7.3 mph NE11.7 kmh NE 8.9 mph14.3 kmh 30.33 in1027.1 mb 0.00 in0.0 mm 0.00 in0.0 mm 0.00 in0.0 mm
08:00 AM 14.2°F-9.9°C 3.2°F-16.0°C 61% 7.3 mph NE11.7 kmh NE 8.9 mph14.3 kmh 30.33 in1027.1 mb 0.00 in0.0 mm 0.00 in0.0 mm 0.00 in0.0 mm
08:15 AM 15.3°F-9.3°C 4.2°F-15.4°C 61% 7.3 mph NE11.7 kmh NE 8.9 mph14.3 kmh 30.33 in1027.1 mb 0.00 in0.0 mm 0.00 in0.0 mm 0.00 in0.0 mm
08:30 AM 16.0°F-8.9°C 4.2°F-15.4°C 59% 7.3 mph NE11.7 kmh NE 8.9 mph14.3 kmh 30.33 in1027.1 mb 0.00 in0.0 mm 0.00 in0.0 mm 0.00 in0.0 mm
08:45 AM 15.8°F-9.0°C 4.0°F-15.6°C 59% 7.3 mph NE11.7 kmh NE 8.9 mph14.3 kmh 30.33 in1027.1 mb 0.00 in0.0 mm 0.00 in0.0 mm 0.00 in0.0 mm
09:00 AM 16.7°F-8.5°C 4.8°F-15.1°C 59% 7.3 mph NE11.7 kmh NE 8.9 mph14.3 kmh 30.33 in1027.1 mb 0.00 in0.0 mm 0.00 in0.0 mm 0.00 in0.0 mm
09:15 AM 17.4°F-8.1°C 5.1°F-14.9°C 58% 7.3 mph NE11.7 kmh NE 8.9 mph14.3 kmh 30.33 in1027.1 mb 0.00 in0.0 mm 0.00 in0.0 mm 0.00 in0.0 mm
09:30 AM 17.8°F-7.9°C 5.1°F-14.9°C 57% 7.3 mph NE11.7 kmh NE 8.9 mph14.3 kmh 30.33 in1027.1 mb 0.00 in0.0 mm 0.00 in0.0 mm 0.00 in0.0 mm
09:45 AM 18.7°F-7.4°C 6.0°F-14.4°C 57% 7.3 mph NE11.7 kmh NE 8.9 mph14.3 kmh 30.33 in1027.1 mb 0.00 in0.0 mm 0.00 in0.0 mm 0.00 in0.0 mm
10:00 AM 19.6°F-6.9°C 6.4°F-14.2°C 56% 7.3 mph NE11.7 kmh NE 8.9 mph14.3 kmh 30.33 in1027.1 mb 0.00 in0.0 mm 0.00 in0.0 mm 0.00 in0.0 mm
10:15 AM 19.9°F-6.7°C 6.7°F-14.1°C 56% 7.3 mph NE11.7 kmh NE 8.9 mph14.3 kmh 30.30 in1026.1 mb 0.00 in0.0 mm 0.00 in0.0 mm 0.00 in0.0 mm
10:30 AM 20.5°F-6.4°C 7.3°F-13.7°C 56% 7.3 mph NE11.7 kmh NE 8.9 mph14.3 kmh 30.30 in1026.1 mb 0.00 in0.0 mm 0.00 in0.0 mm 0.00 in0.0 mm
10:45 AM 21.0°F-6.1°C 7.4°F-13.7°C 55% 7.3 mph NE11.7 kmh NE 8.9 mph14.3 kmh 30.30 in1026.1 mb 0.00 in0.0 mm 0.00 in0.0 mm 0.00 in0.0 mm
11:00 AM 21.6°F-5.8°C 7.5°F-13.6°C 54% 7.3 mph NE11.7 kmh NE 8.9 mph14.3 kmh 30.30 in1026.1 mb 0.00 in0.0 mm 0.00 in0.0 mm 0.00 in0.0 mm
11:15 AM 22.1°F-5.5°C 8.0°F-13.3°C 54% 7.3 mph NE11.7 kmh NE 8.9 mph14.3 kmh 30.30 in1026.1 mb 0.00 in0.0 mm 0.00 in0.0 mm 0.00 in0.0 mm
11:30 AM 22.5°F-5.3°C 7.9°F-13.4°C 53% 7.3 mph NE11.7 kmh NE 8.9 mph14.3 kmh 30.30 in1026.1 mb 0.00 in0.0 mm 0.00 in0.0 mm 0.00 in0.0 mm
11:45 AM 23.2°F-4.9°C 8.6°F-13.0°C 53% 7.3 mph NE11.7 kmh NE 8.9 mph14.3 kmh 30.30 in1026.1 mb 0.00 in0.0 mm 0.00 in0.0 mm 0.00 in0.0 mm
12:00 PM 23.4°F-4.8°C 8.3°F-13.2°C 52% 7.3 mph NE11.7 kmh NE 8.9 mph14.3 kmh 30.27 in1025.1 mb 0.00 in0.0 mm 0.00 in0.0 mm 0.00 in0.0 mm
12:15 PM 23.4°F-4.8°C 8.3°F-13.2°C 52% 7.3 mph NE11.7 kmh NE 8.9 mph14.3 kmh 30.27 in1025.1 mb 0.00 in0.0 mm 0.00 in0.0 mm 0.00 in0.0 mm
12:30 PM 23.7°F-4.6°C 8.6°F-13.0°C 52% 7.3 mph NE11.7 kmh NE 8.9 mph14.3 kmh 30.27 in1025.1 mb 0.00 in0.0 mm 0.00 in0.0 mm 0.00 in0.0 mm
12:45 PM 24.6°F-4.1°C 9.5°F-12.5°C 52% 7.3 mph NE11.7 kmh NE 8.9 mph14.3 kmh 30.27 in1025.1 mb 0.00 in0.0 mm 0.00 in0.0 mm 0.00 in0.0 mm
01:00 PM 24.8°F-4.0°C 9.2°F-12.7°C 51% 7.3 mph NE11.7 kmh NE 8.9 mph14.3 kmh 30.24 in1024.0 mb 0.00 in0.0 mm 0.00 in0.0 mm 0.00 in0.0 mm
01:15 PM 24.1°F-4.4°C 9.0°F-12.8°C 52% 7.3 mph NE11.7 kmh NE 8.9 mph14.3 kmh 30.24 in1024.0 mb 0.00 in0.0 mm 0.00 in0.0 mm 0.00 in0.0 mm
01:45 PM 24.8°F-4.0°C 9.2°F-12.7°C 51% Calm Calm -- 30.24 in1024.0 mb 0.00 in0.0 mm 0.00 in0.0 mm 0.00 in0.0 mm
02:00 PM 25.0°F-3.9°C 9.8°F-12.3°C 52% Calm Calm -- 30.21 in1023.0 mb 0.00 in0.0 mm 0.00 in0.0 mm 0.00 in0.0 mm
02:15 PM 24.3°F-4.3°C 9.1°F-12.7°C 52% Calm Calm -- 30.21 in1023.0 mb 0.00 in0.0 mm 0.00 in0.0 mm 0.00 in0.0 mm
02:30 PM 24.4°F-4.2°C 9.7°F-12.4°C 53% Calm Calm -- 30.18 in1022.0 mb 0.00 in0.0 mm 0.00 in0.0 mm 0.00 in0.0 mm
02:45 PM 24.6°F-4.1°C 9.5°F-12.5°C 52% Calm Calm -- 30.18 in1022.0 mb 0.00 in0.0 mm 0.00 in0.0 mm 0.00 in0.0 mm
03:00 PM 24.3°F-4.3°C 8.7°F-12.9°C 51% Calm Calm -- 30.21 in1023.0 mb 0.00 in0.0 mm 0.00 in0.0 mm 0.00 in0.0 mm
03:15 PM 24.1°F-4.4°C 8.5°F-13.1°C 51% Calm Calm -- 30.21 in1023.0 mb 0.00 in0.0 mm 0.00 in0.0 mm 0.00 in0.0 mm
03:30 PM 25.2°F-3.8°C 9.5°F-12.5°C 51% Calm Calm -- 30.21 in1023.0 mb 0.00 in0.0 mm 0.00 in0.0 mm 0.00 in0.0 mm
03:45 PM 24.6°F-4.1°C 9.0°F-12.8°C 51% Calm Calm -- 30.18 in1022.0 mb 0.00 in0.0 mm 0.00 in0.0 mm 0.00 in0.0 mm
04:00 PM 23.9°F-4.5°C 8.4°F-13.1°C 51% Calm Calm -- 30.18 in1022.0 mb 0.00 in0.0 mm 0.00 in0.0 mm 0.00 in0.0 mm
04:15 PM 23.4°F-4.8°C 7.9°F-13.4°C 51% Calm Calm -- 30.18 in1022.0 mb 0.00 in0.0 mm 0.00 in0.0 mm 0.00 in0.0 mm
04:30 PM 23.4°F-4.8°C 7.9°F-13.4°C 51% Calm Calm -- 30.15 in1021.0 mb 0.00 in0.0 mm 0.00 in0.0 mm 0.00 in0.0 mm
04:45 PM 22.8°F-5.1°C 7.4°F-13.7°C 51% Calm Calm -- 30.15 in1021.0 mb 0.00 in0.0 mm 0.00 in0.0 mm 0.00 in0.0 mm
05:00 PM 22.8°F-5.1°C 7.8°F-13.4°C 52% Calm Calm -- 30.15 in1021.0 mb 0.00 in0.0 mm 0.00 in0.0 mm 0.00 in0.0 mm
05:15 PM 22.3°F-5.4°C 7.3°F-13.7°C 52% Calm Calm -- 30.15 in1021.0 mb 0.00 in0.0 mm 0.00 in0.0 mm 0.00 in0.0 mm
05:30 PM 21.9°F-5.6°C 7.0°F-13.9°C 52% Calm Calm -- 30.15 in1021.0 mb 0.00 in0.0 mm 0.00 in0.0 mm 0.00 in0.0 mm
05:45 PM 21.7°F-5.7°C 7.6°F-13.6°C 54% Calm Calm -- 30.15 in1021.0 mb 0.00 in0.0 mm 0.00 in0.0 mm 0.00 in0.0 mm
06:00 PM 21.6°F-5.8°C 7.9°F-13.4°C 55% Calm Calm -- 30.15 in1021.0 mb 0.00 in0.0 mm 0.00 in0.0 mm 0.00 in0.0 mm
06:15 PM 21.4°F-5.9°C 8.9°F-12.8°C 58% Calm Calm -- 30.18 in1022.0 mb 0.00 in0.0 mm 0.00 in0.0 mm 0.00 in0.0 mm
06:30 PM 21.2°F-6.0°C 9.5°F-12.5°C 60% Calm Calm -- 30.15 in1021.0 mb 0.00 in0.0 mm 0.00 in0.0 mm 0.00 in0.0 mm
06:45 PM 21.2°F-6.0°C 9.8°F-12.3°C 61% Calm Calm -- 30.15 in1021.0 mb 0.00 in0.0 mm 0.00 in0.0 mm 0.00 in0.0 mm
07:00 PM 21.4°F-5.9°C 10.7°F-11.8°C 63% Calm Calm -- 30.15 in1021.0 mb 0.00 in0.0 mm 0.00 in0.0 mm 0.00 in0.0 mm
07:15 PM 21.6°F-5.8°C 10.9°F-11.7°C 63% Calm Calm -- 30.12 in1020.0 mb 0.00 in0.0 mm 0.00 in0.0 mm 0.00 in0.0 mm
07:30 PM 21.6°F-5.8°C 10.5°F-11.9°C 62% Calm Calm -- 30.12 in1020.0 mb 0.00 in0.0 mm 0.00 in0.0 mm 0.00 in0.0 mm
07:45 PM 21.4°F-5.9°C 10.0°F-12.2°C 61% Calm Calm -- 30.12 in1020.0 mb 0.00 in0.0 mm 0.00 in0.0 mm 0.00 in0.0 mm
08:00 PM 21.0°F-6.1°C 9.3°F-12.6°C 60% Calm Calm -- 30.12 in1020.0 mb 0.00 in0.0 mm 0.00 in0.0 mm 0.00 in0.0 mm
08:15 PM 21.0°F-6.1°C 9.3°F-12.6°C 60% Calm Calm -- 30.09 in1019.0 mb 0.00 in0.0 mm 0.00 in0.0 mm 0.00 in0.0 mm
08:30 PM 20.8°F-6.2°C 9.1°F-12.7°C 60% Calm Calm -- 30.09 in1019.0 mb 0.00 in0.0 mm 0.00 in0.0 mm 0.00 in0.0 mm
08:45 PM 20.8°F-6.2°C 9.5°F-12.5°C 61% Calm Calm -- 30.09 in1019.0 mb 0.00 in0.0 mm 0.00 in0.0 mm 0.00 in0.0 mm
09:00 PM 21.0°F-6.1°C 9.7°F-12.4°C 61% Calm Calm -- 30.09 in1019.0 mb 0.00 in0.0 mm 0.00 in0.0 mm 0.00 in0.0 mm
09:15 PM 20.8°F-6.2°C 9.9°F-12.3°C 62% Calm Calm -- 30.09 in1019.0 mb 0.00 in0.0 mm 0.00 in0.0 mm 0.00 in0.0 mm
09:43 PM 20.7°F-6.3°C 9.7°F-12.4°C 62% 15.4 mph NNE24.8 kmh NNE 19.0 mph30.6 kmh 30.07 in1018.3 mb 0.00 in0.0 mm 0.00 in0.0 mm 0.00 in0.0 mm
09:45 PM 20.5°F-6.4°C 9.5°F-12.5°C 62% 15.4 mph NNE24.8 kmh NNE 19.0 mph30.6 kmh 30.09 in1019.0 mb 0.00 in0.0 mm 0.00 in0.0 mm 0.00 in0.0 mm
10:00 PM 20.5°F-6.4°C 9.5°F-12.5°C 62% 15.4 mph NNE24.8 kmh NNE 19.0 mph30.6 kmh 30.09 in1019.0 mb 0.00 in0.0 mm 0.00 in0.0 mm 0.00 in0.0 mm
10:15 PM 20.5°F-6.4°C 9.9°F-12.3°C 63% 15.4 mph NNE24.8 kmh NNE 19.0 mph30.6 kmh 30.09 in1019.0 mb 0.00 in0.0 mm 0.00 in0.0 mm 0.00 in0.0 mm
10:30 PM 20.8°F-6.2°C 10.6°F-11.9°C 64% 15.4 mph NNE24.8 kmh NNE 19.0 mph30.6 kmh 30.07 in1018.3 mb 0.00 in0.0 mm 0.00 in0.0 mm 0.00 in0.0 mm
10:45 PM 21.2°F-6.0°C 11.3°F-11.5°C 65% 15.4 mph NNE24.8 kmh NNE 19.0 mph30.6 kmh 30.09 in1019.0 mb 0.00 in0.0 mm 0.00 in0.0 mm 0.00 in0.0 mm
11:00 PM 21.6°F-5.8°C 11.9°F-11.2°C 66% 15.4 mph NNE24.8 kmh NNE 19.0 mph30.6 kmh 30.07 in1018.3 mb 0.00 in0.0 mm 0.00 in0.0 mm 0.00 in0.0 mm
11:15 PM 21.7°F-5.7°C 12.1°F-11.1°C 66% 15.4 mph NNE24.8 kmh NNE 19.0 mph30.6 kmh 30.07 in1018.3 mb 0.00 in0.0 mm 0.00 in0.0 mm 0.00 in0.0 mm
11:30 PM 21.9°F-5.6°C 12.3°F-10.9°C 66% 15.4 mph NNE24.8 kmh NNE 19.0 mph30.6 kmh 30.07 in1018.3 mb 0.00 in0.0 mm 0.00 in0.0 mm 0.00 in0.0 mm
11:45 PM 22.1°F-5.5°C 12.1°F-11.1°C 65% 15.4 mph NNE24.8 kmh NNE 19.0 mph30.6 kmh 30.07 in1018.3 mb 0.00 in0.0 mm 0.00 in0.0 mm 0.00 in0.0 mm